Startpagina
METAR-TAF:

METAR-TAF

Vliegvelden :

Karachi, Pakistan

breedte: 24-54N, lengte: 067-08E, hoogte: 21 m

Actueel weer

Dit bericht is 34 minuten geleden gemaakt, om 05:55 UTC
Weinig wind
Temperatuur 30°C
Vochtigheid 52%
Druk 1012 hPa
Zicht: 4000 m
rook

METAR: OPKC 180555Z 00000KT 4000 FU NSC 30/19 Q1012 NOSIG

Tijdstip: 11:29 (06:29 UTC)

Verwachting

Dit bericht is 2 uur en het 59 minuten geleden gemaakt, om 03:30 UTC
Verwachting geldig van 18 om 06 UTC tot 18 om 15 UTC
Wind 10 kt uit het westen
Zicht: 6000 m
Weinig wolken op 3000 ft
Verspreide wolken op 10000 ft

TAF: OPKC 180330Z 1806/1815 27010KT 6000 FEW030 SCT100

Waarnemingen en weersverwachtingen van meer dan 4000 vliegvelden (METAR en TAF).

De beschikbare stations zijn de gele en rode punten op de kaart.

Ga met uw muis naar het station om de naam te zien.

Klik dan om waarnemingen en weersverwachtingen te zien.

kaart wijzigen: klik op de groene knoppen met een zwart kruis om in te zoomen, op de groene knop met een streepje om uit te zoomen of op de groene pijlen voor aangrenzende kaarten.


METAR-TAF: